| time (UTC) | temp C | wind direction | speed KPH | gust KPH | rain 1hr cm | rain 24hr cm | rain mn cm | humidity % | barometer mb |
| 20260510150246 | 28 | 305 | 1.6 | 4.8 | 0.00 | 0.03 | 0.03 | 79 | 1015.8 |
| 20260510145742 | 28 | 324 | 4.8 | 6.4 | 0.00 | 0.03 | 0.03 | 79 | 1015.5 |
| 20260510145239 | 28 | 0 | 1.6 | 3.2 | 0.00 | 0.03 | 0.03 | 83 | 1015.7 |
| 20260510144734 | 27 | 75 | 0.0 | 4.8 | 0.00 | 0.03 | 0.03 | 85 | 1015.5 |
| 20260510144233 | 27 | 316 | 3.2 | 4.8 | 0.00 | 0.03 | 0.03 | 85 | 1015.6 |
| 20260510143731 | 26 | 80 | 6.4 | 6.4 | 0.00 | 0.03 | 0.03 | 86 | 1015.7 |
| 20260510143229 | 26 | 291 | 0.0 | 3.2 | 0.00 | 0.03 | 0.03 | 88 | 1015.8 |
| 20260510142725 | 26 | 246 | 0.0 | 3.2 | 0.00 | 0.03 | 0.03 | 90 | 1015.7 |
| 20260510142222 | 26 | 283 | 0.0 | 3.2 | 0.00 | 0.03 | 0.03 | 89 | 1015.7 |
| 20260510141719 | 26 | 351 | 3.2 | 6.4 | 0.00 | 0.03 | 0.03 | 87 | 1015.4 |
| 20260510141217 | 25 | 269 | 0.0 | 3.2 | 0.00 | 0.03 | 0.03 | 90 | 1015.5 |
| 20260510140713 | 25 | 350 | 3.2 | 4.8 | 0.00 | 0.03 | 0.03 | 89 | 1015.4 |
| 20260510140214 | 25 | 249 | 0.0 | 1.6 | 0.00 | 0.03 | 0.03 | 91 | 1015.5 |
| 20260510135708 | 25 | 224 | 0.0 | 3.2 | 0.00 | 0.03 | 0.03 | 91 | 1015.3 |
| 20260510135204 | 25 | 299 | 0.0 | 1.6 | 0.00 | 0.03 | 0.03 | 91 | 1015.3 |
| 20260510134702 | 24 | 319 | 0.0 | 1.6 | 0.00 | 0.03 | 0.03 | 91 | 1015.3 |
| 20260510134159 | 24 | 33 | 3.2 | 3.2 | 0.00 | 0.03 | 0.03 | 91 | 1015.3 |
| 20260510133655 | 24 | 235 | 0.0 | 1.6 | 0.05 | 0.03 | 0.03 | 92 | 1015.3 |
| 20260510133150 | 24 | 146 | 0.0 | 3.2 | 0.00 | 0.00 | 0.00 | 92 | 1015.3 |
| 20260510132647 | 24 | 214 | 1.6 | 3.2 | 0.00 | 0.00 | 0.00 | 91 | 1015.2 |
| 20260510132144 | 24 | 249 | 1.6 | 3.2 | 0.00 | 0.00 | 0.00 | 91 | 1015.1 |
| 20260510131642 | 24 | 356 | 1.6 | 3.2 | 0.00 | 0.00 | 0.00 | 92 | 1015.2 |
| 20260510131139 | 24 | 111 | 1.6 | 3.2 | 0.00 | 0.00 | 0.00 | 92 | 1015.1 |
| 20260510130635 | 23 | 316 | 1.6 | 3.2 | 0.00 | 0.00 | 0.00 | 93 | 1015.1 |
| 20260510130133 | 23 | 102 | 3.2 | 3.2 | 0.00 | 0.00 | 0.00 | 94 | 1015.0 |
| 20260510125629 | 23 | 26 | 3.2 | 3.2 | 0.00 | 0.00 | 0.00 | 96 | 1014.8 |
| 20260510125125 | 22 | 60 | 0.0 | 4.8 | 0.00 | 0.00 | 0.00 | 98 | 1014.8 |
| 20260510124623 | 22 | 124 | 0.0 | 3.2 | 0.00 | 0.00 | 0.00 | 99 | 1014.9 |
| 20260510124119 | 22 | 134 | 0.0 | 3.2 | 0.00 | 0.00 | 0.00 | 99 | 1014.9 |
| 20260510123615 | 22 | 51 | 1.6 | 3.2 | 0.00 | 0.00 | 0.00 | 99 | 1014.8 |
| 20260510123111 | 22 | 316 | 0.0 | 3.2 | 0.00 | 0.00 | 0.00 | 99 | 1014.7 |
| 20260510122607 | 21 | 89 | 1.6 | 3.2 | 0.00 | 0.00 | 0.00 | 99 | 1014.7 |
| 20260510122103 | 21 | 44 | 0.0 | 1.6 | 0.00 | 0.00 | 0.00 | 99 | 1014.5 |
| 20260510121600 | 21 | 102 | 1.6 | 3.2 | 0.00 | 0.00 | 0.00 | 99 | 1014.6 |
| 20260510121057 | 21 | 53 | 0.0 | 1.6 | 0.00 | 0.00 | 0.00 | 99 | 1014.5 |
| 20260510120555 | 21 | 80 | 0.0 | 1.6 | 0.00 | 0.00 | 0.00 | 99 | 1014.5 |
| 20260510120056 | 21 | 29 | 0.0 | 1.6 | 0.00 | 0.00 | 0.00 | 99 | 1014.4 |
| 20260510115553 | 20 | 268 | 0.0 | 1.6 | 0.00 | 0.00 | 0.00 | 99 | 1014.5 |
| 20260510115050 | 20 | 72 | 0.0 | 1.6 | 0.00 | 0.00 | 0.00 | 99 | 1014.2 |
| 20260510114546 | 20 | 97 | 0.0 | 0.0 | 0.00 | 0.00 | 0.00 | 99 | 1014.3 |
| 20260510114042 | 20 | 65 | 0.0 | 1.6 | 0.00 | 0.00 | 0.00 | 99 | 1014.1 |
| 20260510113537 | 20 | 309 | 1.6 | 1.6 | 0.00 | 0.00 | 0.00 | 99 | 1013.9 |
| 20260510113035 | 20 | 44 | 0.0 | 1.6 | 0.00 | 0.00 | 0.00 | 99 | 1013.8 |
| 20260510112531 | 20 | 69 | 0.0 | 3.2 | 0.00 | 0.00 | 0.00 | 99 | 1013.7 |
| 20260510112028 | 20 | 66 | 0.0 | 1.6 | 0.00 | 0.00 | 0.00 | 99 | 1013.7 |
| 20260510111525 | 20 | 310 | 0.0 | 1.6 | 0.00 | 0.00 | 0.00 | 99 | 1013.8 |
| 20260510111021 | 20 | 335 | 0.0 | 1.6 | 0.00 | 0.00 | 0.00 | 99 | 1013.5 |
| 20260510110517 | 20 | 269 | 0.0 | 1.6 | 0.00 | 0.00 | 0.00 | 99 | 1013.5 |
| 20260510110013 | 20 | 46 | 0.0 | 3.2 | 0.00 | 0.00 | 0.00 | 99 | 1013.4 |
| 20260510105508 | 20 | 73 | 0.0 | 3.2 | 0.00 | 0.00 | 0.00 | 99 | 1013.4 |
| 20260510105004 | 20 | 35 | 1.6 | 1.6 | 0.00 | 0.00 | 0.00 | 99 | 1013.3 |
| 20260510104501 | 20 | 22 | 0.0 | 1.6 | 0.00 | 0.00 | 0.00 | 99 | 1013.1 |
| 20260510103957 | 20 | 59 | 0.0 | 3.2 | 0.00 | 0.00 | 0.00 | 99 | 1013.1 |
| 20260510103454 | 20 | 130 | 0.0 | 3.2 | 0.00 | 0.00 | 0.00 | 99 | 1013.0 |
| 20260510102950 | 20 | 107 | 1.6 | 3.2 | 0.00 | 0.00 | 0.00 | 99 | 1013.2 |
| 20260510102446 | 20 | 63 | 0.0 | 1.6 | 0.00 | 0.00 | 0.00 | 99 | 1013.1 |
| 20260510101942 | 20 | 1 | 0.0 | 3.2 | 0.00 | 0.00 | 0.00 | 99 | 1013.0 |
| 20260510101440 | 20 | 78 | 0.0 | 3.2 | 0.00 | 0.00 | 0.00 | 99 | 1012.9 |
| 20260510100939 | 20 | 128 | 0.0 | 3.2 | 0.00 | 0.00 | 0.00 | 99 | 1012.8 |
| 20260510100434 | 20 | 99 | 1.6 | 3.2 | 0.00 | 0.00 | 0.00 | 99 | 1012.6 |
| 20260510095931 | 20 | 54 | 0.0 | 3.2 | 0.00 | 0.00 | 0.00 | 99 | 1012.7 |
| 20260510095426 | 20 | 62 | 0.0 | 3.2 | 0.00 | 0.00 | 0.00 | 99 | 1012.6 |
| 20260510094926 | 20 | 114 | 0.0 | 3.2 | 0.00 | 0.00 | 0.00 | 99 | 1012.5 |
| 20260510094420 | 20 | 73 | 1.6 | 3.2 | 0.00 | 0.00 | 0.00 | 99 | 1012.7 |
| 20260510093917 | 20 | 89 | 0.0 | 1.6 | 0.00 | 0.00 | 0.00 | 99 | 1012.6 |
| 20260510093412 | 20 | 59 | 0.0 | 1.6 | 0.00 | 0.00 | 0.00 | 99 | 1012.6 |
| 20260510092909 | 20 | 129 | 0.0 | 3.2 | 0.00 | 0.00 | 0.00 | 99 | 1012.6 |
| 20260510092407 | 20 | 102 | 0.0 | 1.6 | 0.00 | 0.00 | 0.00 | 99 | 1012.6 |
| 20260510091907 | 20 | 130 | 0.0 | 3.2 | 0.00 | 0.00 | 0.00 | 99 | 1012.5 |
| 20260510091404 | 20 | 117 | 0.0 | 1.6 | 0.00 | 0.00 | 0.00 | 99 | 1012.4 |
| 20260510090900 | 20 | 112 | 0.0 | 1.6 | 0.00 | 0.00 | 0.00 | 99 | 1012.4 |
| 20260510090357 | 20 | 164 | 0.0 | 1.6 | 0.00 | 0.00 | 0.00 | 99 | 1012.5 |
| 20260510085853 | 20 | 114 | 1.6 | 3.2 | 0.00 | 0.00 | 0.00 | 99 | 1012.3 |
| 20260510085348 | 20 | 93 | 0.0 | 3.2 | 0.00 | 0.00 | 0.00 | 99 | 1012.2 |
| 20260510084844 | 20 | 104 | 0.0 | 3.2 | 0.00 | 0.00 | 0.00 | 99 | 1012.2 |
| 20260510084341 | 19 | 106 | 0.0 | 1.6 | 0.00 | 0.00 | 0.00 | 99 | 1012.1 |
| 20260510083838 | 19 | 110 | 0.0 | 1.6 | 0.00 | 0.00 | 0.00 | 99 | 1012.2 |
| 20260510083334 | 19 | 116 | 0.0 | 3.2 | 0.00 | 0.00 | 0.00 | 99 | 1012.0 |
| 20260510082830 | 19 | 127 | 0.0 | 1.6 | 0.00 | 0.00 | 0.00 | 99 | 1012.1 |
| 20260510082327 | 19 | 57 | 0.0 | 3.2 | 0.00 | 0.00 | 0.00 | 99 | 1011.9 |
| 20260510081826 | 19 | 94 | 1.6 | 3.2 | 0.00 | 0.00 | 0.00 | 99 | 1011.8 |
| 20260510081322 | 19 | 112 | 1.6 | 3.2 | 0.00 | 0.00 | 0.00 | 99 | 1011.8 |
| 20260510080818 | 19 | 209 | 1.6 | 1.6 | 0.00 | 0.00 | 0.00 | 99 | 1012.0 |
| 20260510080313 | 19 | 344 | 0.0 | 1.6 | 0.00 | 0.00 | 0.00 | 99 | 1012.0 |
| 20260510075811 | 19 | 89 | 0.0 | 1.6 | 0.00 | 0.00 | 0.00 | 99 | 1012.0 |
| 20260510075308 | 19 | 246 | 0.0 | 1.6 | 0.00 | 0.00 | 0.00 | 99 | 1012.0 |
| 20260510074805 | 20 | 37 | 0.0 | 3.2 | 0.00 | 0.00 | 0.00 | 99 | 1011.7 |
| 20260510074302 | 20 | 347 | 0.0 | 1.6 | 0.00 | 0.00 | 0.00 | 99 | 1011.6 |
| 20260510073758 | 20 | 83 | 0.0 | 3.2 | 0.00 | 0.00 | 0.00 | 99 | 1011.6 |
| 20260510073254 | 20 | 132 | 1.6 | 3.2 | 0.00 | 0.00 | 0.00 | 99 | 1011.6 |
| 20260510072749 | 20 | 89 | 0.0 | 3.2 | 0.00 | 0.00 | 0.00 | 99 | 1011.7 |
| 20260510072246 | 20 | 92 | 1.6 | 3.2 | 0.00 | 0.00 | 0.00 | 99 | 1011.8 |
| 20260510071743 | 20 | 126 | 0.0 | 1.6 | 0.00 | 0.00 | 0.00 | 99 | 1011.8 |
| 20260510071239 | 20 | 114 | 1.6 | 3.2 | 0.00 | 0.00 | 0.00 | 99 | 1011.9 |
| 20260510070738 | 20 | 128 | 0.0 | 3.2 | 0.00 | 0.00 | 0.00 | 99 | 1011.8 |
| 20260510070235 | 20 | 87 | 1.6 | 1.6 | 0.00 | 0.00 | 0.00 | 99 | 1012.0 |
| 20260510065735 | 20 | 252 | 0.0 | 1.6 | 0.00 | 0.00 | 0.00 | 99 | 1011.9 |
| 20260510065231 | 20 | 300 | 0.0 | 1.6 | 0.00 | 0.00 | 0.00 | 98 | 1011.9 |
| 20260510064728 | 20 | 309 | 0.0 | 1.6 | 0.00 | 0.00 | 0.00 | 98 | 1011.7 |
| 20260510064226 | 20 | 135 | 0.0 | 1.6 | 0.00 | 0.00 | 0.00 | 98 | 1011.8 |
| 20260510063722 | 20 | 268 | 0.0 | 3.2 | 0.00 | 0.00 | 0.00 | 98 | 1012.0 |
| 20260510063218 | 20 | 169 | 0.0 | 3.2 | 0.00 | 0.00 | 0.00 | 98 | 1012.1 |
| 20260510062715 | 20 | 227 | 0.0 | 1.6 | 0.00 | 0.00 | 0.00 | 98 | 1012.1 |
| 20260510062211 | 20 | 102 | 0.0 | 3.2 | 0.00 | 0.00 | 0.00 | 98 | 1012.3 |
| 20260510061706 | 20 | 143 | 0.0 | 1.6 | 0.00 | 0.00 | 0.00 | 98 | 1012.0 |
| 20260510061204 | 20 | 212 | 0.0 | 3.2 | 0.00 | 0.00 | 0.00 | 98 | 1012.0 |
| 20260510060700 | 20 | 116 | 0.0 | 3.2 | 0.00 | 0.00 | 0.00 | 98 | 1012.2 |
| 20260510060157 | 20 | 246 | 0.0 | 1.6 | 0.00 | 0.00 | 0.00 | 98 | 1012.2 |
| 20260510055653 | 20 | 179 | 0.0 | 3.2 | 0.00 | 0.00 | 0.00 | 98 | 1012.2 |
| 20260510055152 | 20 | 134 | 1.6 | 3.2 | 0.00 | 0.00 | 0.00 | 98 | 1012.4 |
| 20260510054647 | 20 | 83 | 0.0 | 3.2 | 0.00 | 0.00 | 0.00 | 98 | 1012.3 |
| 20260510054143 | 20 | 114 | 0.0 | 3.2 | 0.00 | 0.00 | 0.00 | 98 | 1012.6 |
| 20260510053642 | 20 | 151 | 0.0 | 3.2 | 0.00 | 0.00 | 0.00 | 98 | 1012.4 |
| 20260510053139 | 20 | 103 | 0.0 | 3.2 | 0.00 | 0.00 | 0.00 | 98 | 1012.5 |
| 20260510052635 | 20 | 121 | 1.6 | 3.2 | 0.00 | 0.00 | 0.00 | 98 | 1012.5 |
| 20260510052131 | 20 | 53 | 0.0 | 3.2 | 0.00 | 0.00 | 0.00 | 98 | 1012.7 |
| 20260510051626 | 20 | 198 | 0.0 | 1.6 | 0.00 | 0.00 | 0.00 | 98 | 1012.8 |
| 20260510051124 | 20 | 235 | 0.0 | 3.2 | 0.00 | 0.00 | 0.00 | 98 | 1012.8 |
| 20260510050621 | 20 | 142 | 0.0 | 1.6 | 0.00 | 0.00 | 0.00 | 98 | 1012.9 |
| 20260510050118 | 20 | 123 | 1.6 | 4.8 | 0.00 | 0.00 | 0.00 | 98 | 1012.9 |
| 20260510045615 | 20 | 121 | 1.6 | 1.6 | 0.00 | 0.00 | 0.00 | 98 | 1013.0 |
| 20260510045111 | 20 | 154 | 1.6 | 3.2 | 0.00 | 0.00 | 0.00 | 98 | 1012.8 |
| 20260510044607 | 20 | 97 | 0.0 | 3.2 | 0.00 | 0.00 | 0.00 | 98 | 1013.0 |
| 20260510044105 | 20 | 126 | 0.0 | 3.2 | 0.05 | 0.00 | 0.00 | 98 | 1013.0 |
| 20260510043600 | 20 | 99 | 0.0 | 3.2 | 0.05 | 0.00 | 0.00 | 98 | 1012.8 |
| 20260510043056 | 20 | 72 | 0.0 | 3.2 | 0.00 | 0.00 | 0.00 | 98 | 1012.8 |
| 20260510042555 | 20 | 136 | 0.0 | 3.2 | 0.00 | 0.00 | 0.00 | 98 | 1013.0 |
| 20260510042051 | 20 | 89 | 0.0 | 3.2 | 0.00 | 0.00 | 0.00 | 98 | 1013.0 |
| 20260510041548 | 20 | 134 | 0.0 | 3.2 | 0.00 | 0.00 | 0.00 | 98 | 1013.2 |
| 20260510041045 | 20 | 117 | 0.0 | 3.2 | 0.00 | 0.00 | 0.00 | 98 | 1013.3 |
| 20260510040542 | 20 | 240 | 0.0 | 1.6 | 0.00 | 0.00 | 0.00 | 98 | 1013.3 |
| 20260510040038 | 20 | 210 | 1.6 | 1.6 | 0.00 | 0.43 | 0.43 | 98 | 1013.3 |
| 20260510035534 | 20 | 49 | 0.0 | 3.2 | 0.00 | 0.43 | 0.43 | 98 | 1013.5 |
| 20260510035034 | 20 | 138 | 1.6 | 1.6 | 0.00 | 0.43 | 0.43 | 98 | 1013.5 |
| 20260510034533 | 20 | 145 | 0.0 | 1.6 | 0.00 | 0.43 | 0.43 | 98 | 1013.5 |
| 20260510034029 | 20 | 143 | 0.0 | 3.2 | 0.00 | 0.43 | 0.43 | 98 | 1013.5 |
| 20260510033524 | 20 | 197 | 0.0 | 1.6 | 0.00 | 0.43 | 0.43 | 98 | 1013.5 |
| 20260510033023 | 20 | 216 | 0.0 | 1.6 | 0.00 | 0.43 | 0.43 | 98 | 1013.6 |
| 20260510032519 | 20 | 145 | 1.6 | 3.2 | 0.00 | 0.43 | 0.43 | 98 | 1013.7 |
| 20260510032014 | 20 | 89 | 0.0 | 1.6 | 0.00 | 0.43 | 0.43 | 98 | 1013.8 |
| 20260510031510 | 20 | 246 | 0.0 | 1.6 | 0.00 | 0.43 | 0.43 | 98 | 1013.8 |
| 20260510031006 | 20 | 142 | 0.0 | 3.2 | 0.00 | 0.43 | 0.43 | 98 | 1013.7 |
| 20260510030501 | 20 | 126 | 0.0 | 3.2 | 0.00 | 0.43 | 0.43 | 98 | 1013.8 |
| 20260510025959 | 20 | 230 | 0.0 | 1.6 | 0.00 | 0.43 | 0.43 | 98 | 1013.4 |
| 20260510025456 | 20 | 175 | 1.6 | 3.2 | 0.00 | 0.43 | 0.43 | 98 | 1013.5 |
| 20260510024954 | 20 | 153 | 1.6 | 3.2 | 0.00 | 0.43 | 0.43 | 98 | 1013.6 |
| 20260510024450 | 20 | 133 | 1.6 | 3.2 | 0.00 | 0.43 | 0.43 | 98 | 1013.5 |
| 20260510023946 | 20 | 143 | 1.6 | 3.2 | 0.00 | 0.43 | 0.43 | 98 | 1013.4 |
| 20260510023442 | 20 | 103 | 0.0 | 3.2 | 0.00 | 0.43 | 0.43 | 98 | 1013.2 |
| 20260510022939 | 20 | 100 | 0.0 | 3.2 | 0.00 | 0.43 | 0.43 | 98 | 1013.2 |
| 20260510022439 | 20 | 352 | 0.0 | 3.2 | 0.00 | 0.43 | 0.43 | 97 | 1013.3 |
| 20260510021938 | 20 | 130 | 0.0 | 1.6 | 0.00 | 0.43 | 0.43 | 97 | 1013.3 |
| 20260510021436 | 20 | 76 | 1.6 | 3.2 | 0.00 | 0.43 | 0.43 | 97 | 1013.1 |
| 20260510020933 | 20 | 133 | 3.2 | 3.2 | 0.00 | 0.43 | 0.43 | 97 | 1013.3 |
| 20260510020432 | 20 | 153 | 1.6 | 3.2 | 0.00 | 0.43 | 0.43 | 97 | 1013.0 |
| 20260510015929 | 20 | 119 | 0.0 | 3.2 | 0.00 | 0.43 | 0.43 | 97 | 1013.2 |
| 20260510015425 | 20 | 50 | 0.0 | 3.2 | 0.00 | 0.43 | 0.43 | 97 | 1013.0 |
| 20260510014920 | 20 | 171 | 1.6 | 1.6 | 0.00 | 0.43 | 0.43 | 97 | 1012.9 |
| 20260510014418 | 20 | 307 | 1.6 | 3.2 | 0.00 | 0.43 | 0.43 | 97 | 1013.1 |
| 20260510013914 | 20 | 2 | 0.0 | 3.2 | 0.00 | 0.43 | 0.43 | 97 | 1012.8 |
| 20260510013409 | 20 | 199 | 0.0 | 3.2 | 0.00 | 0.43 | 0.43 | 97 | 1013.0 |
| 20260510012904 | 20 | 230 | 0.0 | 1.6 | 0.00 | 0.43 | 0.43 | 97 | 1012.7 |
| 20260510012359 | 20 | 318 | 0.0 | 1.6 | 0.00 | 0.43 | 0.43 | 97 | 1012.7 |
| 20260510011854 | 20 | 83 | 0.0 | 1.6 | 0.00 | 0.43 | 0.43 | 97 | 1012.5 |
| 20260510011350 | 20 | 89 | 0.0 | 1.6 | 0.00 | 0.43 | 0.43 | 97 | 1012.3 |
| 20260510010846 | 20 | 203 | 0.0 | 3.2 | 0.00 | 0.43 | 0.43 | 97 | 1012.4 |
| 20260510010344 | 20 | 87 | 3.2 | 3.2 | 0.00 | 0.43 | 0.43 | 97 | 1012.6 |
| 20260510005840 | 20 | 175 | 1.6 | 4.8 | 0.00 | 0.43 | 0.43 | 97 | 1012.5 |
| 20260510005336 | 20 | 21 | 1.6 | 3.2 | 0.00 | 0.43 | 0.43 | 97 | 1012.1 |
| 20260510004834 | 20 | 164 | 1.6 | 3.2 | 0.00 | 0.43 | 0.43 | 97 | 1012.1 |
| 20260510004331 | 20 | 15 | 0.0 | 3.2 | 0.00 | 0.43 | 0.43 | 96 | 1012.2 |
| 20260510003829 | 20 | 75 | 0.0 | 1.6 | 0.00 | 0.43 | 0.43 | 96 | 1012.5 |
| 20260510003326 | 20 | 106 | 3.2 | 4.8 | 0.00 | 0.43 | 0.43 | 96 | 1012.3 |
| 20260510002824 | 20 | 261 | 0.0 | 3.2 | 0.00 | 0.43 | 0.43 | 96 | 1012.5 |
| 20260510002322 | 20 | 89 | 0.0 | 3.2 | 0.00 | 0.43 | 0.43 | 96 | 1012.2 |
| 20260510001818 | 20 | 3 | 0.0 | 1.6 | 0.00 | 0.43 | 0.43 | 96 | 1012.1 |
| 20260510001317 | 20 | 229 | 0.0 | 1.6 | 0.00 | 0.43 | 0.43 | 96 | 1012.1 |
| 20260510000812 | 20 | 56 | 3.2 | 3.2 | 0.00 | 0.43 | 0.43 | 96 | 1011.8 |
| 20260510000311 | 20 | 196 | 0.0 | 1.6 | 0.00 | 0.43 | 0.43 | 96 | 1012.2 |
| 20260509235807 | 20 | 18 | 0.0 | 3.2 | 0.00 | 0.43 | 0.43 | 96 | 1012.0 |
| 20260509235306 | 20 | 8 | 1.6 | 3.2 | 0.00 | 0.43 | 0.43 | 96 | 1012.2 |
| 20260509234759 | 20 | 83 | 0.0 | 3.2 | 0.00 | 0.43 | 0.43 | 96 | 1011.8 |
| 20260509234256 | 20 | 347 | 0.0 | 3.2 | 0.00 | 0.43 | 0.43 | 96 | 1012.2 |
| 20260509233754 | 20 | 15 | 1.6 | 4.8 | 0.00 | 0.43 | 0.43 | 96 | 1012.2 |
| 20260509233252 | 20 | 22 | 1.6 | 3.2 | 0.00 | 0.43 | 0.43 | 96 | 1012.0 |
| 20260509232747 | 20 | 45 | 1.6 | 4.8 | 0.00 | 0.43 | 0.43 | 96 | 1012.4 |
| 20260509232245 | 20 | 16 | 3.2 | 4.8 | 0.00 | 0.43 | 0.43 | 96 | 1012.2 |
| 20260509231741 | 20 | 269 | 0.0 | 3.2 | 0.00 | 0.43 | 0.43 | 96 | 1012.2 |
| 20260509231238 | 20 | 60 | 1.6 | 3.2 | 0.00 | 0.43 | 0.43 | 96 | 1012.3 |
| 20260509230736 | 20 | 26 | 1.6 | 3.2 | 0.00 | 0.43 | 0.43 | 96 | 1012.4 |
| 20260509230233 | 20 | 14 | 1.6 | 3.2 | 0.00 | 0.43 | 0.43 | 96 | 1012.1 |
| 20260509225728 | 20 | 293 | 0.0 | 3.2 | 0.00 | 0.43 | 0.43 | 96 | 1012.3 |
| 20260509225224 | 20 | 27 | 6.4 | 6.4 | 0.00 | 0.43 | 0.43 | 96 | 1012.3 |
| 20260509224720 | 20 | 70 | 3.2 | 4.8 | 0.00 | 0.43 | 0.43 | 96 | 1012.6 |
| 20260509224217 | 20 | 331 | 0.0 | 3.2 | 0.00 | 0.43 | 0.43 | 96 | 1012.4 |
| 20260509223714 | 20 | 80 | 0.0 | 4.8 | 0.00 | 0.43 | 0.43 | 96 | 1012.5 |
| 20260509223211 | 20 | 343 | 0.0 | 3.2 | 0.05 | 0.43 | 0.43 | 95 | 1012.5 |
| 20260509222708 | 20 | 39 | 1.6 | 3.2 | 0.13 | 0.43 | 0.43 | 95 | 1012.6 |
| 20260509222203 | 20 | 64 | 1.6 | 3.2 | 0.23 | 0.41 | 0.41 | 95 | 1012.8 |
| 20260509221659 | 20 | 101 | 3.2 | 3.2 | 0.18 | 0.38 | 0.38 | 95 | 1012.9 |
| 20260509221155 | 20 | 136 | 3.2 | 3.2 | 0.13 | 0.38 | 0.38 | 95 | 1013.0 |
| 20260509220652 | 20 | 74 | 0.0 | 3.2 | 0.05 | 0.36 | 0.36 | 95 | 1013.0 |
| 20260509220148 | 20 | 62 | 1.6 | 3.2 | 0.00 | 0.33 | 0.33 | 95 | 1013.0 |
| 20260509215644 | 20 | 94 | 3.2 | 3.2 | 0.00 | 0.33 | 0.33 | 94 | 1012.8 |
| 20260509215140 | 20 | 138 | 1.6 | 3.2 | 0.30 | 0.33 | 0.33 | 94 | 1012.8 |
| 20260509214638 | 20 | 93 | 1.6 | 4.8 | 0.61 | 0.33 | 0.33 | 93 | 1012.8 |
| 20260509214134 | 21 | 293 | 1.6 | 8.0 | 0.61 | 0.28 | 0.28 | 93 | 1012.8 |
| 20260509213631 | 21 | 218 | 0.0 | 3.2 | 0.53 | 0.23 | 0.23 | 93 | 1012.9 |
| 20260509213127 | 21 | 12 | 1.6 | 3.2 | 0.66 | 0.18 | 0.18 | 92 | 1012.9 |
| 20260509212625 | 21 | 67 | 6.4 | 6.4 | 0.66 | 0.13 | 0.13 | 90 | 1013.0 |
| 20260509212122 | 22 | 205 | 3.2 | 3.2 | 0.36 | 0.05 | 0.05 | 87 | 1013.0 |
| 20260509211617 | 22 | 183 | 3.2 | 4.8 | 0.00 | 0.00 | 0.00 | 84 | 1012.6 |
| 20260509211114 | 22 | 123 | 1.6 | 6.4 | 0.00 | 0.00 | 0.00 | 82 | 1012.3 |
| 20260509210611 | 22 | 136 | 4.8 | 8.0 | 0.00 | 0.00 | 0.00 | 81 | 1012.4 |
| 20260509210108 | 23 | 353 | 1.6 | 4.8 | 0.00 | 0.00 | 0.00 | 80 | 1012.4 |
| 20260509205608 | 23 | 278 | 3.2 | 4.8 | 0.00 | 0.00 | 0.00 | 80 | 1012.3 |
| 20260509205103 | 23 | 310 | 0.0 | 4.8 | 0.00 | 0.00 | 0.00 | 79 | 1012.1 |
| 20260509204559 | 23 | 339 | 6.4 | 6.4 | 0.00 | 0.00 | 0.00 | 79 | 1012.1 |
| 20260509204056 | 23 | 302 | 3.2 | 6.4 | 0.00 | 0.00 | 0.00 | 77 | 1011.8 |
| 20260509203552 | 23 | 163 | 4.8 | 6.4 | 0.00 | 0.00 | 0.00 | 77 | 1012.0 |
| 20260509203051 | 23 | 101 | 3.2 | 4.8 | 0.00 | 0.00 | 0.00 | 77 | 1012.0 |
| 20260509202545 | 23 | 350 | 3.2 | 6.4 | 0.00 | 0.00 | 0.00 | 78 | 1012.0 |
| 20260509202041 | 23 | 226 | 4.8 | 6.4 | 0.00 | 0.00 | 0.00 | 78 | 1012.2 |
| 20260509201536 | 23 | 306 | 4.8 | 4.8 | 0.00 | 0.00 | 0.00 | 79 | 1012.0 |
| 20260509201034 | 23 | 330 | 3.2 | 11.3 | 0.00 | 0.00 | 0.00 | 78 | 1012.2 |
| 20260509200533 | 24 | 219 | 1.6 | 6.4 | 0.00 | 0.00 | 0.00 | 76 | 1012.0 |
| 20260509200030 | 25 | 288 | 3.2 | 6.4 | 0.00 | 0.00 | 0.00 | 74 | 1011.8 |
| 20260509195525 | 27 | 313 | 3.2 | 8.0 | 0.00 | 0.00 | 0.00 | 69 | 1011.9 |
| 20260509195025 | 27 | 347 | 3.2 | 3.2 | 0.00 | 0.00 | 0.00 | 72 | 1011.8 |
| 20260509194521 | 27 | 255 | 3.2 | 4.8 | 0.00 | 0.00 | 0.00 | 72 | 1011.7 |
| 20260509194018 | 27 | 225 | 0.0 | 4.8 | 0.00 | 0.00 | 0.00 | 72 | 1011.7 |
| 20260509193518 | 28 | 42 | 3.2 | 6.4 | 0.00 | 0.00 | 0.00 | 70 | 1011.7 |
| 20260509193015 | 28 | 351 | 4.8 | 4.8 | 0.00 | 0.00 | 0.00 | 69 | 1011.9 |
| 20260509192512 | 28 | 227 | 0.0 | 4.8 | 0.00 | 0.00 | 0.00 | 70 | 1011.7 |
| 20260509192007 | 28 | 36 | 4.8 | 6.4 | 0.00 | 0.00 | 0.00 | 69 | 1011.8 |
| 20260509191502 | 28 | 351 | 4.8 | 4.8 | 0.00 | 0.00 | 0.00 | 68 | 1011.7 |
| 20260509190958 | 28 | 255 | 3.2 | 4.8 | 0.00 | 0.00 | 0.00 | 68 | 1012.0 |
| 20260509190455 | 28 | 339 | 4.8 | 4.8 | 0.00 | 0.00 | 0.00 | 68 | 1012.1 |
| 20260509185953 | 29 | 225 | 0.0 | 3.2 | 0.00 | 0.00 | 0.00 | 67 | 1011.9 |
| 20260509185449 | 29 | 59 | 1.6 | 6.4 | 0.00 | 0.00 | 0.00 | 68 | 1012.0 |
| 20260509184946 | 29 | 230 | 4.8 | 4.8 | 0.00 | 0.00 | 0.00 | 68 | 1012.1 |
| 20260509184445 | 28 | 32 | 3.2 | 3.2 | 0.00 | 0.00 | 0.00 | 69 | 1012.1 |
| 20260509183940 | 28 | 225 | 4.8 | 6.4 | 0.00 | 0.00 | 0.00 | 69 | 1012.1 |
| 20260509183435 | 28 | 257 | 1.6 | 3.2 | 0.00 | 0.00 | 0.00 | 69 | 1012.3 |
| 20260509182932 | 28 | 234 | 4.8 | 4.8 | 0.00 | 0.00 | 0.00 | 68 | 1012.3 |
| 20260509182428 | 28 | 186 | 1.6 | 9.7 | 0.00 | 0.00 | 0.00 | 67 | 1012.2 |
| 20260509181925 | 28 | 173 | 0.0 | 4.8 | 0.00 | 0.00 | 0.00 | 66 | 1012.2 |
| 20260509181423 | 29 | 302 | 3.2 | 3.2 | 0.00 | 0.00 | 0.00 | 64 | 1012.1 |
| 20260509180920 | 29 | 219 | 4.8 | 6.4 | 0.00 | 0.00 | 0.00 | 64 | 1012.0 |
| 20260509180415 | 29 | 234 | 3.2 | 4.8 | 0.00 | 0.00 | 0.00 | 65 | 1012.1 |
| 20260509175913 | 28 | 25 | 3.2 | 6.4 | 0.00 | 0.00 | 0.00 | 65 | 1012.1 |
| 20260509175409 | 29 | 278 | 1.6 | 4.8 | 0.00 | 0.00 | 0.00 | 66 | 1012.3 |
| 20260509174905 | 29 | 359 | 1.6 | 3.2 | 0.00 | 0.00 | 0.00 | 67 | 1012.3 |
| 20260509174402 | 30 | 323 | 4.8 | 6.4 | 0.00 | 0.00 | 0.00 | 64 | 1012.3 |
| 20260509173858 | 30 | 61 | 3.2 | 4.8 | 0.00 | 0.00 | 0.00 | 66 | 1012.3 |
| 20260509173357 | 29 | 292 | 3.2 | 4.8 | 0.00 | 0.00 | 0.00 | 67 | 1012.3 |
| 20260509172854 | 29 | 327 | 4.8 | 4.8 | 0.00 | 0.00 | 0.00 | 66 | 1012.5 |
| 20260509172351 | 29 | 317 | 3.2 | 8.0 | 0.00 | 0.00 | 0.00 | 66 | 1012.4 |
| 20260509171847 | 30 | 126 | 1.6 | 3.2 | 0.00 | 0.00 | 0.00 | 65 | 1012.6 |
| 20260509171343 | 30 | 9 | 1.6 | 3.2 | 0.00 | 0.00 | 0.00 | 65 | 1012.5 |
| 20260509170840 | 30 | 151 | 4.8 | 9.7 | 0.00 | 0.00 | 0.00 | 64 | 1012.5 |
| 20260509170335 | 30 | 289 | 4.8 | 4.8 | 0.00 | 0.00 | 0.00 | 65 | 1012.6 |
| 20260509165830 | 30 | 302 | 3.2 | 4.8 | 0.00 | 0.00 | 0.00 | 64 | 1012.6 |
| 20260509165325 | 30 | 246 | 6.4 | 6.4 | 0.00 | 0.00 | 0.00 | 64 | 1012.4 |
| 20260509164821 | 30 | 281 | 3.2 | 4.8 | 0.00 | 0.00 | 0.00 | 64 | 1012.5 |
| 20260509164317 | 30 | 241 | 3.2 | 4.8 | 0.00 | 0.00 | 0.00 | 65 | 1012.4 |
| 20260509163814 | 30 | 16 | 1.6 | 3.2 | 0.00 | 0.00 | 0.00 | 66 | 1012.5 |
| 20260509163311 | 30 | 318 | 3.2 | 4.8 | 0.00 | 0.00 | 0.00 | 66 | 1012.4 |
| 20260509162810 | 29 | 214 | 1.6 | 3.2 | 0.00 | 0.00 | 0.00 | 70 | 1012.4 |
| 20260509162308 | 28 | 243 | 3.2 | 4.8 | 0.00 | 0.00 | 0.00 | 71 | 1012.6 |
| 20260509161805 | 29 | 215 | 1.6 | 3.2 | 0.00 | 0.00 | 0.00 | 69 | 1012.7 |
| 20260509161301 | 29 | 285 | 0.0 | 1.6 | 0.00 | 0.00 | 0.00 | 70 | 1012.8 |
| 20260509160756 | 28 | 157 | 0.0 | 3.2 | 0.00 | 0.00 | 0.00 | 70 | 1012.8 |
| 20260509160253 | 29 | 40 | 1.6 | 4.8 | 0.00 | 0.00 | 0.00 | 70 | 1012.7 |
| 20260509155748 | 29 | 267 | 1.6 | 3.2 | 0.00 | 0.00 | 0.00 | 71 | 1012.7 |
| 20260509155245 | 29 | 300 | 3.2 | 3.2 | 0.00 | 0.00 | 0.00 | 71 | 1012.3 |
| 20260509154741 | 30 | 146 | 1.6 | 8.0 | 0.00 | 0.00 | 0.00 | 69 | 1012.5 |
| 20260509154238 | 28 | 218 | 1.6 | 1.6 | 0.00 | 0.00 | 0.00 | 74 | 1012.4 |
| 20260509153736 | 28 | 31 | 0.0 | 4.8 | 0.00 | 0.00 | 0.00 | 73 | 1012.5 |
| 20260509153231 | 28 | 209 | 1.6 | 3.2 | 0.00 | 0.00 | 0.00 | 75 | 1012.2 |
| 20260509152728 | 27 | 199 | 3.2 | 4.8 | 0.00 | 0.00 | 0.00 | 77 | 1012.3 |
| 20260509152224 | 27 | 199 | 3.2 | 4.8 | 0.00 | 0.00 | 0.00 | 77 | 1012.3 |
| 20260509151721 | 27 | 244 | 3.2 | 3.2 | 0.00 | 0.00 | 0.00 | 79 | 1012.3 |
| 20260509151218 | 27 | 244 | 3.2 | 6.4 | 0.00 | 0.00 | 0.00 | 79 | 1012.1 |
| 20260509150716 | 27 | 307 | 4.8 | 4.8 | 0.00 | 0.00 | 0.00 | 78 | 1011.8 |